sensor_id;sensor_type;location;lat;lon;timestamp;pressure;altitude;pressure_sealevel;temperature;humidity
5814;BME280;2933;52.302;8.134;2023-08-06T00:02:19;99604.69;;;14.38;100.00
5814;BME280;2933;52.302;8.134;2023-08-06T00:07:22;99590.59;;;14.39;100.00
5814;BME280;2933;52.302;8.134;2023-08-06T00:12:24;99592.81;;;14.44;100.00
5814;BME280;2933;52.302;8.134;2023-08-06T00:17:25;99589.09;;;14.27;100.00
5814;BME280;2933;52.302;8.134;2023-08-06T00:22:28;99590.34;;;14.22;100.00
5814;BME280;2933;52.302;8.134;2023-08-06T00:27:33;99586.44;;;14.36;100.00
5814;BME280;2933;52.302;8.134;2023-08-06T00:32:34;99584.53;;;14.38;100.00
5814;BME280;2933;52.302;8.134;2023-08-06T00:37:37;99574.03;;;14.29;100.00
5814;BME280;2933;52.302;8.134;2023-08-06T00:42:39;99576.66;;;14.09;100.00
5814;BME280;2933;52.302;8.134;2023-08-06T00:47:41;99573.88;;;14.11;100.00
5814;BME280;2933;52.302;8.134;2023-08-06T00:52:44;99570.69;;;14.17;100.00
5814;BME280;2933;52.302;8.134;2023-08-06T00:57:46;99565.03;;;14.21;100.00
5814;BME280;2933;52.302;8.134;2023-08-06T01:02:48;99561.16;;;14.06;100.00
5814;BME280;2933;52.302;8.134;2023-08-06T01:08:05;99542.50;;;13.99;100.00
5814;BME280;2933;52.302;8.134;2023-08-06T01:13:16;99539.06;;;14.09;100.00
5814;BME280;2933;52.302;8.134;2023-08-06T01:18:20;99538.50;;;14.05;100.00
5814;BME280;2933;52.302;8.134;2023-08-06T01:23:24;99527.72;;;14.18;100.00
5814;BME280;2933;52.302;8.134;2023-08-06T01:28:33;99530.91;;;14.12;100.00
5814;BME280;2933;52.302;8.134;2023-08-06T01:33:38;99532.84;;;14.00;100.00
5814;BME280;2933;52.302;8.134;2023-08-06T01:38:46;99523.88;;;13.93;100.00
5814;BME280;2933;52.302;8.134;2023-08-06T01:43:48;99510.34;;;13.87;100.00
5814;BME280;2933;52.302;8.134;2023-08-06T01:48:49;99511.41;;;14.04;100.00
5814;BME280;2933;52.302;8.134;2023-08-06T01:53:52;99519.69;;;14.10;100.00
5814;BME280;2933;52.302;8.134;2023-08-06T01:58:55;99514.16;;;14.13;100.00
5814;BME280;2933;52.302;8.134;2023-08-06T02:03:57;99514.31;;;14.01;100.00
5814;BME280;2933;52.302;8.134;2023-08-06T02:09:00;99506.84;;;14.16;100.00
5814;BME280;2933;52.302;8.134;2023-08-06T02:14:01;99499.13;;;14.15;100.00
5814;BME280;2933;52.302;8.134;2023-08-06T02:19:03;99492.47;;;14.01;100.00
5814;BME280;2933;52.302;8.134;2023-08-06T02:24:06;99491.81;;;13.99;100.00
5814;BME280;2933;52.302;8.134;2023-08-06T02:29:07;99487.63;;;14.06;100.00
5814;BME280;2933;52.302;8.134;2023-08-06T02:34:09;99480.19;;;13.82;100.00
5814;BME280;2933;52.302;8.134;2023-08-06T02:39:12;99474.94;;;13.92;100.00
5814;BME280;2933;52.302;8.134;2023-08-06T02:44:13;99464.31;;;13.83;100.00
5814;BME280;2933;52.302;8.134;2023-08-06T02:49:15;99465.41;;;13.61;100.00
5814;BME280;2933;52.302;8.134;2023-08-06T02:54:18;99456.88;;;13.59;100.00
5814;BME280;2933;52.302;8.134;2023-08-06T02:59:19;99454.25;;;13.59;100.00
5814;BME280;2933;52.302;8.134;2023-08-06T03:04:21;99449.41;;;13.54;100.00
5814;BME280;2933;52.302;8.134;2023-08-06T03:09:24;99432.28;;;13.50;100.00
5814;BME280;2933;52.302;8.134;2023-08-06T03:14:25;99437.53;;;13.40;100.00
5814;BME280;2933;52.302;8.134;2023-08-06T03:19:27;99436.03;;;13.38;100.00
5814;BME280;2933;52.302;8.134;2023-08-06T03:24:29;99429.53;;;13.42;100.00
5814;BME280;2933;52.302;8.134;2023-08-06T03:29:31;99426.59;;;13.25;100.00
5814;BME280;2933;52.302;8.134;2023-08-06T03:34:32;99424.09;;;13.24;100.00
5814;BME280;2933;52.302;8.134;2023-08-06T03:39:35;99418.56;;;13.17;100.00
5814;BME280;2933;52.302;8.134;2023-08-06T03:44:37;99415.53;;;13.12;100.00
5814;BME280;2933;52.302;8.134;2023-08-06T03:49:39;99418.00;;;13.14;100.00
5814;BME280;2933;52.302;8.134;2023-08-06T03:54:42;99421.03;;;13.19;100.00
5814;BME280;2933;52.302;8.134;2023-08-06T03:59:44;99411.13;;;13.32;100.00
5814;BME280;2933;52.302;8.134;2023-08-06T04:04:45;99417.47;;;13.30;100.00
5814;BME280;2933;52.302;8.134;2023-08-06T04:09:56;99397.75;;;13.25;100.00
5814;BME280;2933;52.302;8.134;2023-08-06T04:14:59;99404.91;;;13.23;100.00
5814;BME280;2933;52.302;8.134;2023-08-06T04:20:00;99396.91;;;13.35;100.00
5814;BME280;2933;52.302;8.134;2023-08-06T04:25:04;99396.78;;;13.46;100.00
5814;BME280;2933;52.302;8.134;2023-08-06T04:30:07;99399.41;;;13.27;100.00
5814;BME280;2933;52.302;8.134;2023-08-06T04:35:08;99396.47;;;13.10;100.00
5814;BME280;2933;52.302;8.134;2023-08-06T04:40:11;99405.88;;;13.22;100.00
5814;BME280;2933;52.302;8.134;2023-08-06T04:45:13;99406.72;;;13.72;100.00
5814;BME280;2933;52.302;8.134;2023-08-06T04:50:15;99418.63;;;13.56;100.00
5814;BME280;2933;52.302;8.134;2023-08-06T04:55:18;99425.53;;;13.48;100.00
5814;BME280;2933;52.302;8.134;2023-08-06T05:00:19;99424.81;;;13.75;100.00
5814;BME280;2933;52.302;8.134;2023-08-06T05:05:21;99425.78;;;13.64;100.00
5814;BME280;2933;52.302;8.134;2023-08-06T05:10:25;99429.06;;;13.76;100.00
5814;BME280;2933;52.302;8.134;2023-08-06T05:15:27;99432.81;;;13.83;100.00
5814;BME280;2933;52.302;8.134;2023-08-06T05:20:28;99422.44;;;13.82;100.00
5814;BME280;2933;52.302;8.134;2023-08-06T05:25:31;99419.94;;;14.00;100.00
5814;BME280;2933;52.302;8.134;2023-08-06T05:30:33;99434.47;;;13.84;100.00
5814;BME280;2933;52.302;8.134;2023-08-06T05:35:37;99434.84;;;13.99;100.00
5814;BME280;2933;52.302;8.134;2023-08-06T05:40:40;99429.84;;;14.06;100.00
5814;BME280;2933;52.302;8.134;2023-08-06T05:45:44;99432.47;;;14.06;100.00
5814;BME280;2933;52.302;8.134;2023-08-06T05:50:45;99439.78;;;14.12;100.00
5814;BME280;2933;52.302;8.134;2023-08-06T05:55:48;99437.59;;;14.17;100.00
5814;BME280;2933;52.302;8.134;2023-08-06T06:00:50;99435.16;;;14.44;100.00
5814;BME280;2933;52.302;8.134;2023-08-06T06:05:51;99436.66;;;14.46;100.00
5814;BME280;2933;52.302;8.134;2023-08-06T06:10:54;99435.94;;;14.54;100.00
5814;BME280;2933;52.302;8.134;2023-08-06T06:15:56;99431.06;;;14.69;100.00
5814;BME280;2933;52.302;8.134;2023-08-06T06:20:57;99427.41;;;14.98;100.00
5814;BME280;2933;52.302;8.134;2023-08-06T06:26:00;99426.41;;;15.09;100.00
5814;BME280;2933;52.302;8.134;2023-08-06T06:31:01;99419.19;;;15.29;100.00
5814;BME280;2933;52.302;8.134;2023-08-06T06:36:04;99421.16;;;15.27;100.00
5814;BME280;2933;52.302;8.134;2023-08-06T06:41:09;99416.53;;;15.65;100.00
5814;BME280;2933;52.302;8.134;2023-08-06T06:46:10;99415.97;;;15.97;100.00
5814;BME280;2933;52.302;8.134;2023-08-06T06:51:12;99417.44;;;15.92;100.00
5814;BME280;2933;52.302;8.134;2023-08-06T06:56:15;99414.16;;;16.24;100.00
5814;BME280;2933;52.302;8.134;2023-08-06T07:01:16;99424.69;;;16.24;100.00
5814;BME280;2933;52.302;8.134;2023-08-06T07:06:18;99415.56;;;16.10;100.00
5814;BME280;2933;52.302;8.134;2023-08-06T07:11:20;99429.75;;;16.44;100.00
5814;BME280;2933;52.302;8.134;2023-08-06T07:16:22;99430.66;;;16.61;100.00
5814;BME280;2933;52.302;8.134;2023-08-06T07:21:24;99427.22;;;16.69;100.00
5814;BME280;2933;52.302;8.134;2023-08-06T07:26:26;99431.34;;;16.79;100.00
5814;BME280;2933;52.302;8.134;2023-08-06T07:31:28;99430.13;;;16.57;100.00
5814;BME280;2933;52.302;8.134;2023-08-06T07:36:29;99427.44;;;16.84;100.00
5814;BME280;2933;52.302;8.134;2023-08-06T07:41:35;99430.59;;;16.53;100.00
5814;BME280;2933;52.302;8.134;2023-08-06T07:46:36;99428.03;;;16.69;100.00
5814;BME280;2933;52.302;8.134;2023-08-06T07:51:39;99433.63;;;17.25;100.00
5814;BME280;2933;52.302;8.134;2023-08-06T07:56:42;99438.78;;;17.27;100.00
5814;BME280;2933;52.302;8.134;2023-08-06T08:01:43;99433.66;;;17.50;100.00
5814;BME280;2933;52.302;8.134;2023-08-06T08:06:45;99429.38;;;17.74;100.00
5814;BME280;2933;52.302;8.134;2023-08-06T08:11:48;99425.25;;;17.96;100.00
5814;BME280;2933;52.302;8.134;2023-08-06T08:16:50;99424.28;;;17.64;100.00
5814;BME280;2933;52.302;8.134;2023-08-06T08:21:52;99423.78;;;17.85;100.00
5814;BME280;2933;52.302;8.134;2023-08-06T08:26:54;99422.63;;;17.96;100.00
5814;BME280;2933;52.302;8.134;2023-08-06T08:31:56;99427.69;;;18.22;100.00
5814;BME280;2933;52.302;8.134;2023-08-06T08:36:57;99418.75;;;18.32;100.00
5814;BME280;2933;52.302;8.134;2023-08-06T08:42:01;99424.75;;;18.65;100.00
5814;BME280;2933;52.302;8.134;2023-08-06T08:47:04;99415.72;;;18.51;100.00
5814;BME280;2933;52.302;8.134;2023-08-06T08:52:07;99412.72;;;18.54;100.00
5814;BME280;2933;52.302;8.134;2023-08-06T08:57:12;99416.59;;;18.27;100.00
5814;BME280;2933;52.302;8.134;2023-08-06T09:02:14;99416.78;;;18.25;100.00
5814;BME280;2933;52.302;8.134;2023-08-06T09:07:18;99424.09;;;17.99;100.00
5814;BME280;2933;52.302;8.134;2023-08-06T09:12:22;99420.97;;;17.95;100.00
5814;BME280;2933;52.302;8.134;2023-08-06T09:17:24;99430.53;;;18.04;100.00
5814;BME280;2933;52.302;8.134;2023-08-06T09:22:33;99425.56;;;18.18;100.00
5814;BME280;2933;52.302;8.134;2023-08-06T09:27:36;99425.88;;;18.15;100.00
5814;BME280;2933;52.302;8.134;2023-08-06T09:32:45;99423.28;;;18.06;100.00
5814;BME280;2933;52.302;8.134;2023-08-06T09:37:47;99422.25;;;18.24;100.00
5814;BME280;2933;52.302;8.134;2023-08-06T09:42:50;99423.28;;;18.06;100.00
5814;BME280;2933;52.302;8.134;2023-08-06T09:47:55;99424.22;;;18.14;100.00
5814;BME280;2933;52.302;8.134;2023-08-06T09:52:57;99426.19;;;18.28;100.00
5814;BME280;2933;52.302;8.134;2023-08-06T09:58:01;99427.72;;;18.62;100.00
5814;BME280;2933;52.302;8.134;2023-08-06T10:03:03;99428.38;;;18.64;100.00
5814;BME280;2933;52.302;8.134;2023-08-06T10:08:06;99417.88;;;18.48;100.00
5814;BME280;2933;52.302;8.134;2023-08-06T10:13:10;99431.03;;;18.64;100.00
5814;BME280;2933;52.302;8.134;2023-08-06T10:18:13;99418.75;;;18.71;100.00
5814;BME280;2933;52.302;8.134;2023-08-06T10:23:18;99418.19;;;18.93;100.00
5814;BME280;2933;52.302;8.134;2023-08-06T10:28:33;99417.19;;;19.17;100.00
5814;BME280;2933;52.302;8.134;2023-08-06T10:33:42;99418.56;;;19.36;100.00
5814;BME280;2933;52.302;8.134;2023-08-06T10:38:45;99412.91;;;19.39;100.00
5814;BME280;2933;52.302;8.134;2023-08-06T10:43:49;99421.69;;;18.85;100.00
5814;BME280;2933;52.302;8.134;2023-08-06T10:48:51;99415.34;;;18.63;100.00
5814;BME280;2933;52.302;8.134;2023-08-06T10:53:53;99423.78;;;18.50;100.00
5814;BME280;2933;52.302;8.134;2023-08-06T10:58:57;99415.66;;;18.60;100.00
5814;BME280;2933;52.302;8.134;2023-08-06T11:04:01;99417.50;;;18.59;100.00
5814;BME280;2933;52.302;8.134;2023-08-06T11:09:03;99404.97;;;18.53;100.00
5814;BME280;2933;52.302;8.134;2023-08-06T11:14:06;99411.94;;;18.77;100.00
5814;BME280;2933;52.302;8.134;2023-08-06T11:19:07;99407.63;;;18.45;100.00
5814;BME280;2933;52.302;8.134;2023-08-06T11:24:10;99405.28;;;18.50;100.00
5814;BME280;2933;52.302;8.134;2023-08-06T11:29:15;99400.97;;;18.57;100.00
5814;BME280;2933;52.302;8.134;2023-08-06T11:34:16;99405.56;;;18.63;100.00
5814;BME280;2933;52.302;8.134;2023-08-06T11:39:18;99399.16;;;18.97;100.00
5814;BME280;2933;52.302;8.134;2023-08-06T11:44:21;99409.84;;;19.04;100.00
5814;BME280;2933;52.302;8.134;2023-08-06T11:49:41;99404.09;;;19.24;100.00
5814;BME280;2933;52.302;8.134;2023-08-06T11:55:03;99408.91;;;19.20;100.00
5814;BME280;2933;52.302;8.134;2023-08-06T12:00:08;99399.16;;;19.20;100.00
5814;BME280;2933;52.302;8.134;2023-08-06T12:05:12;99397.19;;;19.61;100.00
5814;BME280;2933;52.302;8.134;2023-08-06T12:10:16;99392.75;;;19.53;100.00
5814;BME280;2933;52.302;8.134;2023-08-06T12:15:20;99390.13;;;19.91;100.00
5814;BME280;2933;52.302;8.134;2023-08-06T12:20:22;99384.53;;;20.61;100.00
5814;BME280;2933;52.302;8.134;2023-08-06T12:25:25;99384.22;;;20.34;100.00
5814;BME280;2933;52.302;8.134;2023-08-06T12:30:26;99383.47;;;20.10;100.00
5814;BME280;2933;52.302;8.134;2023-08-06T12:35:28;99384.31;;;19.73;100.00
5814;BME280;2933;52.302;8.134;2023-08-06T12:40:31;99386.03;;;20.04;100.00
5814;BME280;2933;52.302;8.134;2023-08-06T12:45:32;99393.25;;;19.95;100.00
5814;BME280;2933;52.302;8.134;2023-08-06T12:50:35;99408.16;;;19.96;100.00
5814;BME280;2933;52.302;8.134;2023-08-06T12:55:38;99400.47;;;19.86;100.00
5814;BME280;2933;52.302;8.134;2023-08-06T13:00:40;99404.03;;;19.93;100.00
5814;BME280;2933;52.302;8.134;2023-08-06T13:05:42;99398.94;;;20.07;100.00
5814;BME280;2933;52.302;8.134;2023-08-06T13:10:46;99390.97;;;20.22;100.00
5814;BME280;2933;52.302;8.134;2023-08-06T13:15:48;99396.81;;;20.17;100.00
5814;BME280;2933;52.302;8.134;2023-08-06T13:20:53;99405.69;;;19.94;100.00
5814;BME280;2933;52.302;8.134;2023-08-06T13:25:56;99408.69;;;19.91;100.00
5814;BME280;2933;52.302;8.134;2023-08-06T13:30:58;99398.44;;;19.27;100.00
5814;BME280;2933;52.302;8.134;2023-08-06T13:36:00;99395.09;;;19.10;100.00
5814;BME280;2933;52.302;8.134;2023-08-06T13:41:03;99398.00;;;18.92;100.00
5814;BME280;2933;52.302;8.134;2023-08-06T13:46:05;99403.31;;;18.83;100.00
5814;BME280;2933;52.302;8.134;2023-08-06T13:51:07;99400.66;;;18.92;100.00
5814;BME280;2933;52.302;8.134;2023-08-06T13:56:10;99396.59;;;18.72;100.00
5814;BME280;2933;52.302;8.134;2023-08-06T14:01:12;99406.03;;;18.67;100.00
5814;BME280;2933;52.302;8.134;2023-08-06T14:06:14;99412.69;;;18.63;100.00
5814;BME280;2933;52.302;8.134;2023-08-06T14:11:17;99412.50;;;18.64;100.00
5814;BME280;2933;52.302;8.134;2023-08-06T14:16:18;99416.31;;;18.62;100.00
5814;BME280;2933;52.302;8.134;2023-08-06T14:21:20;99414.66;;;18.61;100.00
5814;BME280;2933;52.302;8.134;2023-08-06T14:26:23;99422.69;;;18.76;100.00
5814;BME280;2933;52.302;8.134;2023-08-06T14:31:24;99404.97;;;18.53;100.00
5814;BME280;2933;52.302;8.134;2023-08-06T14:36:26;99408.25;;;18.55;100.00
5814;BME280;2933;52.302;8.134;2023-08-06T14:41:29;99422.78;;;18.59;100.00
5814;BME280;2933;52.302;8.134;2023-08-06T14:46:30;99426.91;;;18.62;100.00
5814;BME280;2933;52.302;8.134;2023-08-06T14:51:32;99429.19;;;18.65;100.00
5814;BME280;2933;52.302;8.134;2023-08-06T14:56:35;99433.50;;;18.66;100.00
5814;BME280;2933;52.302;8.134;2023-08-06T15:01:36;99421.53;;;18.78;100.00
5814;BME280;2933;52.302;8.134;2023-08-06T15:06:38;99428.28;;;18.81;100.00
5814;BME280;2933;52.302;8.134;2023-08-06T15:11:41;99430.81;;;18.74;100.00
5814;BME280;2933;52.302;8.134;2023-08-06T15:16:46;99443.31;;;18.88;100.00
5814;BME280;2933;52.302;8.134;2023-08-06T15:21:47;99446.00;;;18.80;100.00
5814;BME280;2933;52.302;8.134;2023-08-06T15:26:50;99462.88;;;18.71;100.00
5814;BME280;2933;52.302;8.134;2023-08-06T15:31:52;99476.72;;;18.98;100.00
5814;BME280;2933;52.302;8.134;2023-08-06T15:36:53;99492.16;;;18.78;100.00
5814;BME280;2933;52.302;8.134;2023-08-06T15:41:57;99496.16;;;18.73;100.00
5814;BME280;2933;52.302;8.134;2023-08-06T15:46:58;99489.53;;;18.69;100.00
5814;BME280;2933;52.302;8.134;2023-08-06T15:52:00;99486.44;;;18.57;100.00
5814;BME280;2933;52.302;8.134;2023-08-06T15:57:04;99492.56;;;18.50;100.00
5814;BME280;2933;52.302;8.134;2023-08-06T16:02:06;99501.50;;;18.40;100.00
5814;BME280;2933;52.302;8.134;2023-08-06T16:07:08;99496.91;;;18.26;100.00
5814;BME280;2933;52.302;8.134;2023-08-06T16:12:11;99518.72;;;17.87;100.00
5814;BME280;2933;52.302;8.134;2023-08-06T16:17:13;99518.69;;;17.79;100.00
5814;BME280;2933;52.302;8.134;2023-08-06T16:22:14;99510.75;;;17.70;100.00
5814;BME280;2933;52.302;8.134;2023-08-06T16:27:17;99507.31;;;17.70;100.00
5814;BME280;2933;52.302;8.134;2023-08-06T16:32:19;99521.31;;;17.54;100.00
5814;BME280;2933;52.302;8.134;2023-08-06T16:37:21;99536.00;;;17.05;100.00
5814;BME280;2933;52.302;8.134;2023-08-06T16:42:24;99538.63;;;16.71;100.00
5814;BME280;2933;52.302;8.134;2023-08-06T16:47:25;99542.63;;;16.48;100.00
5814;BME280;2933;52.302;8.134;2023-08-06T16:52:27;99544.75;;;16.45;100.00
5814;BME280;2933;52.302;8.134;2023-08-06T16:57:30;99552.59;;;16.37;100.00
5814;BME280;2933;52.302;8.134;2023-08-06T17:02:31;99545.63;;;16.54;100.00
5814;BME280;2933;52.302;8.134;2023-08-06T17:07:33;99548.91;;;16.56;100.00
5814;BME280;2933;52.302;8.134;2023-08-06T17:12:37;99560.44;;;16.28;100.00
5814;BME280;2933;52.302;8.134;2023-08-06T17:17:38;99558.00;;;16.09;100.00
5814;BME280;2933;52.302;8.134;2023-08-06T17:22:40;99588.03;;;15.98;100.00
5814;BME280;2933;52.302;8.134;2023-08-06T17:27:43;99594.63;;;15.56;100.00
5814;BME280;2933;52.302;8.134;2023-08-06T17:32:44;99578.03;;;15.56;100.00
5814;BME280;2933;52.302;8.134;2023-08-06T17:37:46;99591.63;;;15.51;100.00
5814;BME280;2933;52.302;8.134;2023-08-06T17:42:49;99593.81;;;15.56;100.00
5814;BME280;2933;52.302;8.134;2023-08-06T17:47:51;99606.03;;;15.75;100.00
5814;BME280;2933;52.302;8.134;2023-08-06T17:52:52;99604.34;;;15.56;100.00
5814;BME280;2933;52.302;8.134;2023-08-06T17:57:55;99614.38;;;15.42;100.00
5814;BME280;2933;52.302;8.134;2023-08-06T18:02:57;99614.88;;;15.56;100.00
5814;BME280;2933;52.302;8.134;2023-08-06T18:07:58;99621.31;;;15.43;100.00
5814;BME280;2933;52.302;8.134;2023-08-06T18:13:01;99637.88;;;15.54;100.00
5814;BME280;2933;52.302;8.134;2023-08-06T18:18:03;99625.34;;;15.38;100.00
5814;BME280;2933;52.302;8.134;2023-08-06T18:23:05;99637.28;;;15.32;100.00
5814;BME280;2933;52.302;8.134;2023-08-06T18:28:08;99645.06;;;15.24;100.00
5814;BME280;2933;52.302;8.134;2023-08-06T18:33:09;99647.97;;;15.30;100.00
5814;BME280;2933;52.302;8.134;2023-08-06T18:38:11;99660.28;;;15.30;100.00
5814;BME280;2933;52.302;8.134;2023-08-06T18:43:14;99672.13;;;15.44;100.00
5814;BME280;2933;52.302;8.134;2023-08-06T18:48:15;99675.47;;;15.46;100.00
5814;BME280;2933;52.302;8.134;2023-08-06T18:53:17;99685.22;;;15.35;100.00
5814;BME280;2933;52.302;8.134;2023-08-06T18:58:20;99678.56;;;15.31;100.00
5814;BME280;2933;52.302;8.134;2023-08-06T19:03:21;99685.91;;;15.28;100.00
5814;BME280;2933;52.302;8.134;2023-08-06T19:08:23;99685.50;;;15.23;100.00
5814;BME280;2933;52.302;8.134;2023-08-06T19:13:26;99690.38;;;15.17;100.00
5814;BME280;2933;52.302;8.134;2023-08-06T19:18:27;99683.72;;;15.23;100.00
5814;BME280;2933;52.302;8.134;2023-08-06T19:23:29;99692.59;;;15.22;100.00
5814;BME280;2933;52.302;8.134;2023-08-06T19:28:32;99692.47;;;15.14;100.00
5814;BME280;2933;52.302;8.134;2023-08-06T19:33:34;99703.13;;;15.12;100.00
5814;BME280;2933;52.302;8.134;2023-08-06T19:38:35;99710.47;;;14.99;100.00
5814;BME280;2933;52.302;8.134;2023-08-06T19:43:38;99714.22;;;14.96;100.00
5814;BME280;2933;52.302;8.134;2023-08-06T19:48:40;99708.00;;;14.97;100.00
5814;BME280;2933;52.302;8.134;2023-08-06T19:53:42;99712.72;;;14.94;100.00
5814;BME280;2933;52.302;8.134;2023-08-06T19:58:45;99718.69;;;14.86;100.00
5814;BME280;2933;52.302;8.134;2023-08-06T20:03:47;99712.59;;;14.76;100.00
5814;BME280;2933;52.302;8.134;2023-08-06T20:08:49;99719.38;;;14.78;100.00
5814;BME280;2933;52.302;8.134;2023-08-06T20:13:52;99717.97;;;14.74;100.00
5814;BME280;2933;52.302;8.134;2023-08-06T20:18:53;99714.09;;;14.88;100.00
5814;BME280;2933;52.302;8.134;2023-08-06T20:23:55;99723.53;;;14.91;100.00
5814;BME280;2933;52.302;8.134;2023-08-06T20:28:58;99724.34;;;14.72;100.00
5814;BME280;2933;52.302;8.134;2023-08-06T20:34:01;99728.63;;;14.63;100.00
5814;BME280;2933;52.302;8.134;2023-08-06T20:39:02;99735.53;;;14.54;100.00
5814;BME280;2933;52.302;8.134;2023-08-06T20:44:05;99736.06;;;14.38;100.00
5814;BME280;2933;52.302;8.134;2023-08-06T20:49:07;99742.97;;;14.29;100.00
5814;BME280;2933;52.302;8.134;2023-08-06T20:54:08;99748.06;;;14.31;100.00
5814;BME280;2933;52.302;8.134;2023-08-06T20:59:11;99746.88;;;14.35;100.00
5814;BME280;2933;52.302;8.134;2023-08-06T21:04:13;99740.63;;;14.26;100.00
5814;BME280;2933;52.302;8.134;2023-08-06T21:09:14;99755.16;;;14.30;100.00
5814;BME280;2933;52.302;8.134;2023-08-06T21:14:17;99759.59;;;14.30;100.00
5814;BME280;2933;52.302;8.134;2023-08-06T21:19:19;99767.44;;;14.39;100.00
5814;BME280;2933;52.302;8.134;2023-08-06T21:24:20;99764.41;;;14.34;100.00
5814;BME280;2933;52.302;8.134;2023-08-06T21:29:23;99777.13;;;14.29;100.00
5814;BME280;2933;52.302;8.134;2023-08-06T21:34:25;99782.78;;;14.25;100.00
5814;BME280;2933;52.302;8.134;2023-08-06T21:39:27;99790.94;;;14.21;100.00
5814;BME280;2933;52.302;8.134;2023-08-06T21:44:31;99790.75;;;14.13;100.00
5814;BME280;2933;52.302;8.134;2023-08-06T21:49:32;99791.72;;;14.12;100.00
5814;BME280;2933;52.302;8.134;2023-08-06T21:54:35;99800.63;;;14.21;100.00
5814;BME280;2933;52.302;8.134;2023-08-06T21:59:38;99798.97;;;14.20;100.00
5814;BME280;2933;52.302;8.134;2023-08-06T22:04:39;99799.59;;;14.12;100.00
5814;BME280;2933;52.302;8.134;2023-08-06T22:09:41;99803.06;;;14.13;100.00
5814;BME280;2933;52.302;8.134;2023-08-06T22:14:44;99811.34;;;14.08;100.00
5814;BME280;2933;52.302;8.134;2023-08-06T22:19:46;99813.16;;;14.08;100.00
5814;BME280;2933;52.302;8.134;2023-08-06T22:24:47;99804.19;;;14.10;100.00
5814;BME280;2933;52.302;8.134;2023-08-06T22:29:50;99814.88;;;13.97;100.00
5814;BME280;2933;52.302;8.134;2023-08-06T22:34:52;99821.28;;;14.04;100.00
5814;BME280;2933;52.302;8.134;2023-08-06T22:39:53;99817.97;;;14.02;100.00
5814;BME280;2933;52.302;8.134;2023-08-06T22:45:00;99824.44;;;13.98;100.00
5814;BME280;2933;52.302;8.134;2023-08-06T22:50:02;99819.72;;;13.92;100.00
5814;BME280;2933;52.302;8.134;2023-08-06T22:55:05;99818.56;;;13.85;100.00
5814;BME280;2933;52.302;8.134;2023-08-06T23:00:10;99818.94;;;14.01;100.00
5814;BME280;2933;52.302;8.134;2023-08-06T23:05:11;99823.47;;;13.99;100.00
5814;BME280;2933;52.302;8.134;2023-08-06T23:10:13;99817.41;;;13.99;100.00
5814;BME280;2933;52.302;8.134;2023-08-06T23:15:16;99817.69;;;14.05;100.00
5814;BME280;2933;52.302;8.134;2023-08-06T23:20:18;99820.16;;;13.97;100.00
5814;BME280;2933;52.302;8.134;2023-08-06T23:25:19;99809.91;;;13.94;100.00
5814;BME280;2933;52.302;8.134;2023-08-06T23:30:22;99805.47;;;13.95;100.00
5814;BME280;2933;52.302;8.134;2023-08-06T23:35:24;99809.53;;;13.99;100.00
5814;BME280;2933;52.302;8.134;2023-08-06T23:40:25;99804.38;;;13.87;100.00
5814;BME280;2933;52.302;8.134;2023-08-06T23:45:28;99807.00;;;13.87;100.00
5814;BME280;2933;52.302;8.134;2023-08-06T23:50:30;99808.38;;;13.92;100.00
5814;BME280;2933;52.302;8.134;2023-08-06T23:55:31;99813.22;;;13.86;100.00
